sensor_id;sensor_type;location;lat;lon;timestamp;temperature;humidity
13606;DHT22;6874;52.084;5.090;2023-01-28T00:01:17;3.60;99.90
13606;DHT22;6874;52.084;5.090;2023-01-28T00:03:44;3.60;99.90
13606;DHT22;6874;52.084;5.090;2023-01-28T00:06:13;3.50;99.90
13606;DHT22;6874;52.084;5.090;2023-01-28T00:08:40;3.50;99.90
13606;DHT22;6874;52.084;5.090;2023-01-28T00:11:07;3.50;99.90
13606;DHT22;6874;52.084;5.090;2023-01-28T00:13:33;3.50;99.90
13606;DHT22;6874;52.084;5.090;2023-01-28T00:16:01;3.50;99.90
13606;DHT22;6874;52.084;5.090;2023-01-28T00:18:28;3.50;99.90
13606;DHT22;6874;52.084;5.090;2023-01-28T00:21:02;3.50;99.90
13606;DHT22;6874;52.084;5.090;2023-01-28T00:23:30;3.50;99.90
13606;DHT22;6874;52.084;5.090;2023-01-28T00:26:02;3.50;99.90
13606;DHT22;6874;52.084;5.090;2023-01-28T00:28:28;3.50;99.90
13606;DHT22;6874;52.084;5.090;2023-01-28T00:30:54;3.50;99.90
13606;DHT22;6874;52.084;5.090;2023-01-28T00:33:20;3.50;99.90
13606;DHT22;6874;52.084;5.090;2023-01-28T00:35:46;3.50;99.90
13606;DHT22;6874;52.084;5.090;2023-01-28T00:38:12;3.50;99.90
13606;DHT22;6874;52.084;5.090;2023-01-28T00:40:40;3.50;99.90
13606;DHT22;6874;52.084;5.090;2023-01-28T00:43:06;3.50;99.90
13606;DHT22;6874;52.084;5.090;2023-01-28T00:45:33;3.50;99.90
13606;DHT22;6874;52.084;5.090;2023-01-28T00:47:59;3.50;99.90
13606;DHT22;6874;52.084;5.090;2023-01-28T00:50:24;3.50;99.90
13606;DHT22;6874;52.084;5.090;2023-01-28T00:52:53;3.50;99.90
13606;DHT22;6874;52.084;5.090;2023-01-28T00:55:19;3.50;99.90
13606;DHT22;6874;52.084;5.090;2023-01-28T00:57:48;3.50;99.90
13606;DHT22;6874;52.084;5.090;2023-01-28T01:00:15;3.50;99.90
13606;DHT22;6874;52.084;5.090;2023-01-28T01:02:41;3.40;99.90
13606;DHT22;6874;52.084;5.090;2023-01-28T01:05:07;3.50;99.90
13606;DHT22;6874;52.084;5.090;2023-01-28T01:07:33;3.40;99.90
13606;DHT22;6874;52.084;5.090;2023-01-28T01:10:13;3.50;99.90
13606;DHT22;6874;52.084;5.090;2023-01-28T01:12:41;3.40;99.90
13606;DHT22;6874;52.084;5.090;2023-01-28T01:15:08;3.40;99.90
13606;DHT22;6874;52.084;5.090;2023-01-28T01:17:39;3.40;99.90
13606;DHT22;6874;52.084;5.090;2023-01-28T01:20:10;3.40;99.90
13606;DHT22;6874;52.084;5.090;2023-01-28T01:22:37;3.40;99.90
13606;DHT22;6874;52.084;5.090;2023-01-28T01:25:04;3.40;99.90
13606;DHT22;6874;52.084;5.090;2023-01-28T01:27:31;3.30;99.90
13606;DHT22;6874;52.084;5.090;2023-01-28T01:29:57;3.40;99.90
13606;DHT22;6874;52.084;5.090;2023-01-28T01:32:24;3.60;99.90
13606;DHT22;6874;52.084;5.090;2023-01-28T01:34:51;3.40;99.90
13606;DHT22;6874;52.084;5.090;2023-01-28T01:37:19;3.40;99.90
13606;DHT22;6874;52.084;5.090;2023-01-28T01:39:46;3.40;99.90
13606;DHT22;6874;52.084;5.090;2023-01-28T01:42:13;3.40;99.90
13606;DHT22;6874;52.084;5.090;2023-01-28T01:47:38;3.40;99.90
13606;DHT22;6874;52.084;5.090;2023-01-28T01:52:53;3.40;99.90
13606;DHT22;6874;52.084;5.090;2023-01-28T01:55:24;3.40;99.90
13606;DHT22;6874;52.084;5.090;2023-01-28T01:57:54;3.40;99.90
13606;DHT22;6874;52.084;5.090;2023-01-28T02:00:22;3.30;99.90
13606;DHT22;6874;52.084;5.090;2023-01-28T02:02:51;3.40;99.90
13606;DHT22;6874;52.084;5.090;2023-01-28T02:05:19;3.40;99.90
13606;DHT22;6874;52.084;5.090;2023-01-28T02:07:47;3.30;99.90
13606;DHT22;6874;52.084;5.090;2023-01-28T02:10:15;3.40;99.90
13606;DHT22;6874;52.084;5.090;2023-01-28T02:12:44;3.40;99.90
13606;DHT22;6874;52.084;5.090;2023-01-28T02:15:16;3.40;99.90
13606;DHT22;6874;52.084;5.090;2023-01-28T02:17:42;3.30;99.90
13606;DHT22;6874;52.084;5.090;2023-01-28T02:20:11;3.30;99.90
13606;DHT22;6874;52.084;5.090;2023-01-28T02:25:54;3.30;99.90
13606;DHT22;6874;52.084;5.090;2023-01-28T02:36:54;3.30;99.90
13606;DHT22;6874;52.084;5.090;2023-01-28T02:39:32;3.30;99.90
13606;DHT22;6874;52.084;5.090;2023-01-28T02:42:14;3.30;99.90
13606;DHT22;6874;52.084;5.090;2023-01-28T02:44:41;3.30;99.90
13606;DHT22;6874;52.084;5.090;2023-01-28T02:47:11;3.30;99.90
13606;DHT22;6874;52.084;5.090;2023-01-28T02:49:58;3.40;99.90
13606;DHT22;6874;52.084;5.090;2023-01-28T02:55:34;3.30;99.90
13606;DHT22;6874;52.084;5.090;2023-01-28T02:58:29;3.20;99.90
13606;DHT22;6874;52.084;5.090;2023-01-28T03:06:30;3.20;99.90
13606;DHT22;6874;52.084;5.090;2023-01-28T03:09:01;3.20;99.90
13606;DHT22;6874;52.084;5.090;2023-01-28T03:14:50;3.20;99.90
13606;DHT22;6874;52.084;5.090;2023-01-28T03:17:49;3.20;99.90
13606;DHT22;6874;52.084;5.090;2023-01-28T03:20:44;3.20;99.90
13606;DHT22;6874;52.084;5.090;2023-01-28T03:23:46;3.20;99.90
13606;DHT22;6874;52.084;5.090;2023-01-28T03:26:35;3.20;99.90
13606;DHT22;6874;52.084;5.090;2023-01-28T03:29:22;3.20;99.90
13606;DHT22;6874;52.084;5.090;2023-01-28T03:32:08;3.20;99.90
13606;DHT22;6874;52.084;5.090;2023-01-28T03:34:52;3.20;99.90
13606;DHT22;6874;52.084;5.090;2023-01-28T03:37:37;3.20;99.90
13606;DHT22;6874;52.084;5.090;2023-01-28T03:40:05;3.20;99.90
13606;DHT22;6874;52.084;5.090;2023-01-28T03:42:31;3.20;99.90
13606;DHT22;6874;52.084;5.090;2023-01-28T03:44:58;3.20;99.90
13606;DHT22;6874;52.084;5.090;2023-01-28T03:47:27;3.10;99.90
13606;DHT22;6874;52.084;5.090;2023-01-28T03:49:55;3.10;99.90
13606;DHT22;6874;52.084;5.090;2023-01-28T03:52:23;3.10;99.90
13606;DHT22;6874;52.084;5.090;2023-01-28T03:54:53;3.10;99.90
13606;DHT22;6874;52.084;5.090;2023-01-28T03:57:25;3.10;99.90
13606;DHT22;6874;52.084;5.090;2023-01-28T03:59:54;3.10;99.90
13606;DHT22;6874;52.084;5.090;2023-01-28T04:02:21;3.20;99.90
13606;DHT22;6874;52.084;5.090;2023-01-28T04:04:47;3.20;99.90
13606;DHT22;6874;52.084;5.090;2023-01-28T04:07:14;3.10;99.90
13606;DHT22;6874;52.084;5.090;2023-01-28T04:09:42;3.10;99.90
13606;DHT22;6874;52.084;5.090;2023-01-28T04:12:08;3.10;99.90
13606;DHT22;6874;52.084;5.090;2023-01-28T04:14:36;3.10;99.90
13606;DHT22;6874;52.084;5.090;2023-01-28T04:17:04;3.10;99.90
13606;DHT22;6874;52.084;5.090;2023-01-28T04:19:33;3.00;99.90
13606;DHT22;6874;52.084;5.090;2023-01-28T04:22:03;3.10;99.90
13606;DHT22;6874;52.084;5.090;2023-01-28T04:24:29;3.10;99.90
13606;DHT22;6874;52.084;5.090;2023-01-28T04:26:57;3.10;99.90
13606;DHT22;6874;52.084;5.090;2023-01-28T04:29:24;3.10;99.90
13606;DHT22;6874;52.084;5.090;2023-01-28T04:31:49;3.10;99.90
13606;DHT22;6874;52.084;5.090;2023-01-28T04:34:15;3.10;99.90
13606;DHT22;6874;52.084;5.090;2023-01-28T04:36:42;3.10;99.90
13606;DHT22;6874;52.084;5.090;2023-01-28T04:39:07;3.00;99.90
13606;DHT22;6874;52.084;5.090;2023-01-28T04:41:33;3.10;99.90
13606;DHT22;6874;52.084;5.090;2023-01-28T04:43:59;3.10;99.90
13606;DHT22;6874;52.084;5.090;2023-01-28T04:46:27;3.00;99.90
13606;DHT22;6874;52.084;5.090;2023-01-28T04:48:53;3.10;99.90
13606;DHT22;6874;52.084;5.090;2023-01-28T04:51:20;3.00;99.90
13606;DHT22;6874;52.084;5.090;2023-01-28T04:53:50;3.00;99.90
13606;DHT22;6874;52.084;5.090;2023-01-28T04:56:17;3.00;99.90
13606;DHT22;6874;52.084;5.090;2023-01-28T04:58:44;3.00;99.90
13606;DHT22;6874;52.084;5.090;2023-01-28T05:01:11;3.00;99.90
13606;DHT22;6874;52.084;5.090;2023-01-28T05:03:36;3.00;99.90
13606;DHT22;6874;52.084;5.090;2023-01-28T05:06:02;3.00;99.90
13606;DHT22;6874;52.084;5.090;2023-01-28T05:08:29;3.00;99.90
13606;DHT22;6874;52.084;5.090;2023-01-28T05:10:56;3.00;99.90
13606;DHT22;6874;52.084;5.090;2023-01-28T05:13:22;3.00;99.90
13606;DHT22;6874;52.084;5.090;2023-01-28T05:15:52;3.00;99.90
13606;DHT22;6874;52.084;5.090;2023-01-28T05:18:18;3.00;99.90
13606;DHT22;6874;52.084;5.090;2023-01-28T05:20:44;3.00;99.90
13606;DHT22;6874;52.084;5.090;2023-01-28T05:23:09;3.00;99.90
13606;DHT22;6874;52.084;5.090;2023-01-28T05:25:38;3.10;99.90
13606;DHT22;6874;52.084;5.090;2023-01-28T05:28:04;3.00;99.90
13606;DHT22;6874;52.084;5.090;2023-01-28T05:30:29;3.00;99.90
13606;DHT22;6874;52.084;5.090;2023-01-28T05:32:56;3.00;99.90
13606;DHT22;6874;52.084;5.090;2023-01-28T05:35:22;2.90;99.90
13606;DHT22;6874;52.084;5.090;2023-01-28T05:37:51;3.00;99.90
13606;DHT22;6874;52.084;5.090;2023-01-28T05:40:17;2.90;99.90
13606;DHT22;6874;52.084;5.090;2023-01-28T05:42:45;2.80;99.90
13606;DHT22;6874;52.084;5.090;2023-01-28T05:45:11;2.90;99.90
13606;DHT22;6874;52.084;5.090;2023-01-28T05:47:38;2.90;99.90
13606;DHT22;6874;52.084;5.090;2023-01-28T05:50:07;3.00;99.90
13606;DHT22;6874;52.084;5.090;2023-01-28T05:52:33;2.90;99.90
13606;DHT22;6874;52.084;5.090;2023-01-28T05:54:59;2.90;99.90
13606;DHT22;6874;52.084;5.090;2023-01-28T05:57:25;2.90;99.90
13606;DHT22;6874;52.084;5.090;2023-01-28T05:59:57;2.90;99.90
13606;DHT22;6874;52.084;5.090;2023-01-28T06:02:22;3.00;99.90
13606;DHT22;6874;52.084;5.090;2023-01-28T06:04:48;2.90;99.90
13606;DHT22;6874;52.084;5.090;2023-01-28T06:07:17;3.00;99.90
13606;DHT22;6874;52.084;5.090;2023-01-28T06:09:45;2.90;99.90
13606;DHT22;6874;52.084;5.090;2023-01-28T06:12:12;2.90;99.90
13606;DHT22;6874;52.084;5.090;2023-01-28T06:14:38;2.90;99.90
13606;DHT22;6874;52.084;5.090;2023-01-28T06:17:04;2.90;99.90
13606;DHT22;6874;52.084;5.090;2023-01-28T06:19:29;2.90;99.90
13606;DHT22;6874;52.084;5.090;2023-01-28T06:21:55;2.90;99.90
13606;DHT22;6874;52.084;5.090;2023-01-28T06:24:21;2.90;99.90
13606;DHT22;6874;52.084;5.090;2023-01-28T06:26:47;2.90;99.90
13606;DHT22;6874;52.084;5.090;2023-01-28T06:29:13;2.90;99.90
13606;DHT22;6874;52.084;5.090;2023-01-28T06:31:39;2.90;99.90
13606;DHT22;6874;52.084;5.090;2023-01-28T06:34:07;2.90;99.90
13606;DHT22;6874;52.084;5.090;2023-01-28T06:36:33;2.80;99.90
13606;DHT22;6874;52.084;5.090;2023-01-28T06:38:59;2.90;99.90
13606;DHT22;6874;52.084;5.090;2023-01-28T06:41:25;2.90;99.90
13606;DHT22;6874;52.084;5.090;2023-01-28T06:43:51;2.90;99.90
13606;DHT22;6874;52.084;5.090;2023-01-28T06:46:17;2.80;99.90
13606;DHT22;6874;52.084;5.090;2023-01-28T06:48:43;2.80;99.90
13606;DHT22;6874;52.084;5.090;2023-01-28T06:51:09;2.80;99.90
13606;DHT22;6874;52.084;5.090;2023-01-28T06:53:34;2.80;99.90
13606;DHT22;6874;52.084;5.090;2023-01-28T06:56:00;2.90;99.90
13606;DHT22;6874;52.084;5.090;2023-01-28T06:58:27;2.90;99.90
13606;DHT22;6874;52.084;5.090;2023-01-28T07:00:53;2.80;99.90
13606;DHT22;6874;52.084;5.090;2023-01-28T07:03:19;2.80;99.90
13606;DHT22;6874;52.084;5.090;2023-01-28T07:05:44;2.80;99.90
13606;DHT22;6874;52.084;5.090;2023-01-28T07:08:10;2.80;99.90
13606;DHT22;6874;52.084;5.090;2023-01-28T07:10:36;2.80;99.90
13606;DHT22;6874;52.084;5.090;2023-01-28T07:13:02;2.80;99.90
13606;DHT22;6874;52.084;5.090;2023-01-28T07:15:28;2.80;99.90
13606;DHT22;6874;52.084;5.090;2023-01-28T07:17:54;2.80;99.90
13606;DHT22;6874;52.084;5.090;2023-01-28T07:20:19;2.70;99.90
13606;DHT22;6874;52.084;5.090;2023-01-28T07:22:47;2.70;99.90
13606;DHT22;6874;52.084;5.090;2023-01-28T07:25:13;2.80;99.90
13606;DHT22;6874;52.084;5.090;2023-01-28T07:27:48;2.80;99.90
13606;DHT22;6874;52.084;5.090;2023-01-28T07:30:17;2.80;99.90
13606;DHT22;6874;52.084;5.090;2023-01-28T07:32:44;2.80;99.90
13606;DHT22;6874;52.084;5.090;2023-01-28T07:35:10;2.80;99.90
13606;DHT22;6874;52.084;5.090;2023-01-28T07:37:36;2.80;99.90
13606;DHT22;6874;52.084;5.090;2023-01-28T07:40:03;2.70;99.90
13606;DHT22;6874;52.084;5.090;2023-01-28T07:42:28;2.80;99.90
13606;DHT22;6874;52.084;5.090;2023-01-28T07:44:55;2.70;99.90
13606;DHT22;6874;52.084;5.090;2023-01-28T07:47:20;2.70;99.90
13606;DHT22;6874;52.084;5.090;2023-01-28T07:49:46;2.80;99.90
13606;DHT22;6874;52.084;5.090;2023-01-28T07:52:12;2.70;99.90
13606;DHT22;6874;52.084;5.090;2023-01-28T07:54:37;2.80;99.90
13606;DHT22;6874;52.084;5.090;2023-01-28T07:57:07;2.70;99.90
13606;DHT22;6874;52.084;5.090;2023-01-28T07:59:34;2.80;99.90
13606;DHT22;6874;52.084;5.090;2023-01-28T08:02:00;2.70;99.90
13606;DHT22;6874;52.084;5.090;2023-01-28T08:04:28;2.70;99.90
13606;DHT22;6874;52.084;5.090;2023-01-28T08:06:54;2.70;99.90
13606;DHT22;6874;52.084;5.090;2023-01-28T08:09:21;2.70;99.90
13606;DHT22;6874;52.084;5.090;2023-01-28T08:11:46;2.70;99.90
13606;DHT22;6874;52.084;5.090;2023-01-28T08:14:12;2.70;99.90
13606;DHT22;6874;52.084;5.090;2023-01-28T08:16:38;2.70;99.90
13606;DHT22;6874;52.084;5.090;2023-01-28T08:19:03;2.70;99.90
13606;DHT22;6874;52.084;5.090;2023-01-28T08:21:29;2.70;99.90
13606;DHT22;6874;52.084;5.090;2023-01-28T08:23:54;2.70;99.90
13606;DHT22;6874;52.084;5.090;2023-01-28T08:26:21;2.70;99.90
13606;DHT22;6874;52.084;5.090;2023-01-28T08:28:46;2.70;99.90
13606;DHT22;6874;52.084;5.090;2023-01-28T08:31:12;2.70;99.90
13606;DHT22;6874;52.084;5.090;2023-01-28T08:33:38;2.70;99.90
13606;DHT22;6874;52.084;5.090;2023-01-28T08:36:04;2.70;99.90
13606;DHT22;6874;52.084;5.090;2023-01-28T08:38:29;2.70;99.90
13606;DHT22;6874;52.084;5.090;2023-01-28T08:40:56;2.70;99.90
13606;DHT22;6874;52.084;5.090;2023-01-28T08:43:22;2.70;99.90
13606;DHT22;6874;52.084;5.090;2023-01-28T08:45:48;2.70;99.90
13606;DHT22;6874;52.084;5.090;2023-01-28T08:48:17;2.70;99.90
13606;DHT22;6874;52.084;5.090;2023-01-28T08:50:43;2.70;99.90
13606;DHT22;6874;52.084;5.090;2023-01-28T08:53:12;2.70;99.90
13606;DHT22;6874;52.084;5.090;2023-01-28T08:55:38;2.70;99.90
13606;DHT22;6874;52.084;5.090;2023-01-28T08:58:05;2.70;99.90
13606;DHT22;6874;52.084;5.090;2023-01-28T09:00:32;2.70;99.90
13606;DHT22;6874;52.084;5.090;2023-01-28T09:02:57;2.70;99.90
13606;DHT22;6874;52.084;5.090;2023-01-28T09:05:23;2.70;99.90
13606;DHT22;6874;52.084;5.090;2023-01-28T09:07:49;2.70;99.90
13606;DHT22;6874;52.084;5.090;2023-01-28T09:10:16;2.80;99.90
13606;DHT22;6874;52.084;5.090;2023-01-28T09:12:44;2.70;99.90
13606;DHT22;6874;52.084;5.090;2023-01-28T09:15:10;2.80;99.90
13606;DHT22;6874;52.084;5.090;2023-01-28T09:17:36;2.80;99.90
13606;DHT22;6874;52.084;5.090;2023-01-28T09:20:02;2.80;99.90
13606;DHT22;6874;52.084;5.090;2023-01-28T09:22:28;2.80;99.90
13606;DHT22;6874;52.084;5.090;2023-01-28T09:24:54;2.80;99.90
13606;DHT22;6874;52.084;5.090;2023-01-28T09:27:19;2.80;99.90
13606;DHT22;6874;52.084;5.090;2023-01-28T09:29:45;2.80;99.90
13606;DHT22;6874;52.084;5.090;2023-01-28T09:32:11;2.80;99.90
13606;DHT22;6874;52.084;5.090;2023-01-28T09:34:36;2.80;99.90
13606;DHT22;6874;52.084;5.090;2023-01-28T09:37:02;2.80;99.90
13606;DHT22;6874;52.084;5.090;2023-01-28T09:39:27;2.80;99.90
13606;DHT22;6874;52.084;5.090;2023-01-28T09:42:22;2.70;99.90
13606;DHT22;6874;52.084;5.090;2023-01-28T09:47:38;2.70;99.90
13606;DHT22;6874;52.084;5.090;2023-01-28T09:50:10;2.70;99.90
13606;DHT22;6874;52.084;5.090;2023-01-28T09:52:38;2.80;99.90
13606;DHT22;6874;52.084;5.090;2023-01-28T09:55:18;2.80;99.90
13606;DHT22;6874;52.084;5.090;2023-01-28T09:57:52;2.80;99.90
13606;DHT22;6874;52.084;5.090;2023-01-28T10:00:22;2.80;99.90
13606;DHT22;6874;52.084;5.090;2023-01-28T10:17:31;2.80;99.90
13606;DHT22;6874;52.084;5.090;2023-01-28T10:22:44;2.70;99.90
13606;DHT22;6874;52.084;5.090;2023-01-28T10:25:18;2.70;99.90
13606;DHT22;6874;52.084;5.090;2023-01-28T10:27:44;2.70;99.90
13606;DHT22;6874;52.084;5.090;2023-01-28T10:30:18;2.70;99.90
13606;DHT22;6874;52.084;5.090;2023-01-28T10:33:05;2.70;99.90
13606;DHT22;6874;52.084;5.090;2023-01-28T10:35:38;2.70;99.90
13606;DHT22;6874;52.084;5.090;2023-01-28T10:38:07;2.70;99.90
13606;DHT22;6874;52.084;5.090;2023-01-28T10:40:35;2.70;99.90
13606;DHT22;6874;52.084;5.090;2023-01-28T10:43:01;2.70;99.90
13606;DHT22;6874;52.084;5.090;2023-01-28T10:46:00;2.70;99.90
13606;DHT22;6874;52.084;5.090;2023-01-28T10:51:36;2.70;99.90
13606;DHT22;6874;52.084;5.090;2023-01-28T10:54:12;2.70;99.90
13606;DHT22;6874;52.084;5.090;2023-01-28T10:56:42;2.70;99.90
13606;DHT22;6874;52.084;5.090;2023-01-28T10:59:30;2.70;99.90
13606;DHT22;6874;52.084;5.090;2023-01-28T11:02:01;2.70;99.90
13606;DHT22;6874;52.084;5.090;2023-01-28T11:04:32;2.70;99.90
13606;DHT22;6874;52.084;5.090;2023-01-28T11:07:00;2.70;99.90
13606;DHT22;6874;52.084;5.090;2023-01-28T11:09:43;2.70;99.90
13606;DHT22;6874;52.084;5.090;2023-01-28T11:12:18;2.70;99.90
13606;DHT22;6874;52.084;5.090;2023-01-28T11:15:15;2.70;99.90
13606;DHT22;6874;52.084;5.090;2023-01-28T11:17:47;2.70;99.90
13606;DHT22;6874;52.084;5.090;2023-01-28T11:20:21;2.70;99.90
13606;DHT22;6874;52.084;5.090;2023-01-28T11:22:47;2.70;99.90
13606;DHT22;6874;52.084;5.090;2023-01-28T11:25:23;2.70;99.90
13606;DHT22;6874;52.084;5.090;2023-01-28T11:27:51;2.70;99.90
13606;DHT22;6874;52.084;5.090;2023-01-28T11:30:29;2.70;99.90
13606;DHT22;6874;52.084;5.090;2023-01-28T11:35:36;2.70;99.90
13606;DHT22;6874;52.084;5.090;2023-01-28T11:38:03;2.60;99.90
13606;DHT22;6874;52.084;5.090;2023-01-28T11:40:49;2.70;99.90
13606;DHT22;6874;52.084;5.090;2023-01-28T11:43:16;2.70;99.90
13606;DHT22;6874;52.084;5.090;2023-01-28T11:51:41;2.70;99.90
13606;DHT22;6874;52.084;5.090;2023-01-28T11:57:23;2.70;99.90
13606;DHT22;6874;52.084;5.090;2023-01-28T11:59:53;2.80;99.90
13606;DHT22;6874;52.084;5.090;2023-01-28T12:02:45;2.80;99.90
13606;DHT22;6874;52.084;5.090;2023-01-28T12:16:25;2.80;99.90
13606;DHT22;6874;52.084;5.090;2023-01-28T12:32:50;2.90;99.90
13606;DHT22;6874;52.084;5.090;2023-01-28T12:35:53;2.90;99.90
13606;DHT22;6874;52.084;5.090;2023-01-28T12:41:19;3.00;99.90
13606;DHT22;6874;52.084;5.090;2023-01-28T12:46:39;3.00;99.90
13606;DHT22;6874;52.084;5.090;2023-01-28T12:54:34;3.00;99.90
13606;DHT22;6874;52.084;5.090;2023-01-28T12:57:01;3.10;99.90
13606;DHT22;6874;52.084;5.090;2023-01-28T12:59:45;3.10;99.90
13606;DHT22;6874;52.084;5.090;2023-01-28T13:07:37;3.20;99.90
13606;DHT22;6874;52.084;5.090;2023-01-28T13:10:16;3.20;99.90
13606;DHT22;6874;52.084;5.090;2023-01-28T13:12:43;3.30;99.90
13606;DHT22;6874;52.084;5.090;2023-01-28T13:15:15;3.30;99.90
13606;DHT22;6874;52.084;5.090;2023-01-28T13:18:02;3.40;99.90
13606;DHT22;6874;52.084;5.090;2023-01-28T13:20:47;3.40;99.90
13606;DHT22;6874;52.084;5.090;2023-01-28T13:23:45;3.50;99.90
13606;DHT22;6874;52.084;5.090;2023-01-28T13:28:35;3.70;99.90
13606;DHT22;6874;52.084;5.090;2023-01-28T13:31:10;3.70;99.90
13606;DHT22;6874;52.084;5.090;2023-01-28T13:33:42;3.90;99.90
13606;DHT22;6874;52.084;5.090;2023-01-28T13:36:15;3.90;99.90
13606;DHT22;6874;52.084;5.090;2023-01-28T13:38:44;4.00;99.90
13606;DHT22;6874;52.084;5.090;2023-01-28T13:41:10;4.10;99.90
13606;DHT22;6874;52.084;5.090;2023-01-28T13:43:38;4.10;99.90
13606;DHT22;6874;52.084;5.090;2023-01-28T13:46:26;4.20;99.90
13606;DHT22;6874;52.084;5.090;2023-01-28T13:48:55;4.30;99.90
13606;DHT22;6874;52.084;5.090;2023-01-28T13:51:27;4.40;99.90
13606;DHT22;6874;52.084;5.090;2023-01-28T13:54:37;4.40;99.90
13606;DHT22;6874;52.084;5.090;2023-01-28T14:10:48;4.70;99.90
13606;DHT22;6874;52.084;5.090;2023-01-28T14:13:48;4.80;99.90
13606;DHT22;6874;52.084;5.090;2023-01-28T14:18:43;4.80;99.90
13606;DHT22;6874;52.084;5.090;2023-01-28T14:21:15;4.90;99.90
13606;DHT22;6874;52.084;5.090;2023-01-28T14:23:47;4.90;99.90
13606;DHT22;6874;52.084;5.090;2023-01-28T14:29:21;4.90;99.90
13606;DHT22;6874;52.084;5.090;2023-01-28T14:31:50;4.90;99.90
13606;DHT22;6874;52.084;5.090;2023-01-28T14:34:27;4.90;99.90
13606;DHT22;6874;52.084;5.090;2023-01-28T14:36:56;4.90;99.90
13606;DHT22;6874;52.084;5.090;2023-01-28T14:39:29;4.90;99.90
13606;DHT22;6874;52.084;5.090;2023-01-28T14:41:58;4.90;99.90
13606;DHT22;6874;52.084;5.090;2023-01-28T14:44:37;4.90;99.90
13606;DHT22;6874;52.084;5.090;2023-01-28T14:47:34;5.00;99.90
13606;DHT22;6874;52.084;5.090;2023-01-28T14:50:19;4.90;99.90
13606;DHT22;6874;52.084;5.090;2023-01-28T14:56:19;4.90;99.90
13606;DHT22;6874;52.084;5.090;2023-01-28T14:58:51;5.00;99.90
13606;DHT22;6874;52.084;5.090;2023-01-28T15:01:24;4.90;99.90
13606;DHT22;6874;52.084;5.090;2023-01-28T15:03:51;5.00;99.90
13606;DHT22;6874;52.084;5.090;2023-01-28T15:06:21;4.90;99.90
13606;DHT22;6874;52.084;5.090;2023-01-28T15:08:51;5.00;99.90
13606;DHT22;6874;52.084;5.090;2023-01-28T15:11:23;4.90;99.90
13606;DHT22;6874;52.084;5.090;2023-01-28T15:13:53;5.00;99.90
13606;DHT22;6874;52.084;5.090;2023-01-28T15:16:22;4.90;99.90
13606;DHT22;6874;52.084;5.090;2023-01-28T15:18:49;5.00;99.90
13606;DHT22;6874;52.084;5.090;2023-01-28T15:21:22;4.90;99.90
13606;DHT22;6874;52.084;5.090;2023-01-28T15:23:51;4.90;99.90
13606;DHT22;6874;52.084;5.090;2023-01-28T15:26:23;4.90;99.90
13606;DHT22;6874;52.084;5.090;2023-01-28T15:28:50;4.90;99.90
13606;DHT22;6874;52.084;5.090;2023-01-28T15:31:25;4.90;99.90
13606;DHT22;6874;52.084;5.090;2023-01-28T15:34:17;4.90;99.90
13606;DHT22;6874;52.084;5.090;2023-01-28T15:36:43;4.90;99.90
13606;DHT22;6874;52.084;5.090;2023-01-28T15:39:17;4.90;99.90
13606;DHT22;6874;52.084;5.090;2023-01-28T15:41:49;4.90;99.90
13606;DHT22;6874;52.084;5.090;2023-01-28T15:44:17;4.90;99.90
13606;DHT22;6874;52.084;5.090;2023-01-28T15:46:46;4.90;99.90
13606;DHT22;6874;52.084;5.090;2023-01-28T15:49:16;4.80;99.90
13606;DHT22;6874;52.084;5.090;2023-01-28T15:51:47;4.90;99.90
13606;DHT22;6874;52.084;5.090;2023-01-28T15:54:15;4.80;99.90
13606;DHT22;6874;52.084;5.090;2023-01-28T15:56:41;4.80;99.90
13606;DHT22;6874;52.084;5.090;2023-01-28T15:59:27;4.80;99.90
13606;DHT22;6874;52.084;5.090;2023-01-28T16:02:19;4.80;99.90
13606;DHT22;6874;52.084;5.090;2023-01-28T16:05:02;4.80;99.90
13606;DHT22;6874;52.084;5.090;2023-01-28T16:07:30;4.80;99.90
13606;DHT22;6874;52.084;5.090;2023-01-28T16:09:58;4.80;99.90
13606;DHT22;6874;52.084;5.090;2023-01-28T16:12:25;4.80;99.90
13606;DHT22;6874;52.084;5.090;2023-01-28T16:17:21;4.70;99.90
13606;DHT22;6874;52.084;5.090;2023-01-28T16:20:00;4.70;99.90
13606;DHT22;6874;52.084;5.090;2023-01-28T16:22:38;4.70;99.90
13606;DHT22;6874;52.084;5.090;2023-01-28T16:27:45;4.70;99.90
13606;DHT22;6874;52.084;5.090;2023-01-28T16:30:11;4.70;99.90
13606;DHT22;6874;52.084;5.090;2023-01-28T16:32:38;4.70;99.90
13606;DHT22;6874;52.084;5.090;2023-01-28T16:35:23;4.70;99.90
13606;DHT22;6874;52.084;5.090;2023-01-28T16:37:49;4.70;99.90
13606;DHT22;6874;52.084;5.090;2023-01-28T16:40:18;4.70;99.90
13606;DHT22;6874;52.084;5.090;2023-01-28T16:42:44;4.70;99.90
13606;DHT22;6874;52.084;5.090;2023-01-28T16:47:40;4.70;99.90
13606;DHT22;6874;52.084;5.090;2023-01-28T16:50:06;4.70;99.90
13606;DHT22;6874;52.084;5.090;2023-01-28T16:52:32;4.60;99.90
13606;DHT22;6874;52.084;5.090;2023-01-28T16:54:58;4.60;99.90
13606;DHT22;6874;52.084;5.090;2023-01-28T16:57:23;4.60;99.90
13606;DHT22;6874;52.084;5.090;2023-01-28T16:59:49;4.60;99.90
13606;DHT22;6874;52.084;5.090;2023-01-28T17:02:15;4.70;99.90
13606;DHT22;6874;52.084;5.090;2023-01-28T17:04:42;4.60;99.90
13606;DHT22;6874;52.084;5.090;2023-01-28T17:07:08;4.60;99.90
13606;DHT22;6874;52.084;5.090;2023-01-28T17:09:33;4.60;99.90
13606;DHT22;6874;52.084;5.090;2023-01-28T17:12:00;4.60;99.90
13606;DHT22;6874;52.084;5.090;2023-01-28T17:14:26;4.60;99.90
13606;DHT22;6874;52.084;5.090;2023-01-28T17:16:51;4.60;99.90
13606;DHT22;6874;52.084;5.090;2023-01-28T17:19:17;4.60;99.90
13606;DHT22;6874;52.084;5.090;2023-01-28T17:21:43;4.60;99.90
13606;DHT22;6874;52.084;5.090;2023-01-28T17:24:09;4.50;99.90
13606;DHT22;6874;52.084;5.090;2023-01-28T17:26:35;4.60;99.90
13606;DHT22;6874;52.084;5.090;2023-01-28T17:29:03;4.60;99.90
13606;DHT22;6874;52.084;5.090;2023-01-28T17:31:29;4.50;99.90
13606;DHT22;6874;52.084;5.090;2023-01-28T17:33:56;4.50;99.90
13606;DHT22;6874;52.084;5.090;2023-01-28T17:36:23;4.50;99.90
13606;DHT22;6874;52.084;5.090;2023-01-28T17:38:49;4.50;99.90
13606;DHT22;6874;52.084;5.090;2023-01-28T17:41:15;4.50;99.90
13606;DHT22;6874;52.084;5.090;2023-01-28T17:43:50;4.50;99.90
13606;DHT22;6874;52.084;5.090;2023-01-28T17:46:16;4.50;99.90
13606;DHT22;6874;52.084;5.090;2023-01-28T17:48:43;4.40;99.90
13606;DHT22;6874;52.084;5.090;2023-01-28T17:51:11;4.50;99.90
13606;DHT22;6874;52.084;5.090;2023-01-28T17:53:37;4.40;99.90
13606;DHT22;6874;52.084;5.090;2023-01-28T17:56:03;4.40;99.90
13606;DHT22;6874;52.084;5.090;2023-01-28T17:58:28;4.40;99.90
13606;DHT22;6874;52.084;5.090;2023-01-28T18:00:54;4.40;99.90
13606;DHT22;6874;52.084;5.090;2023-01-28T18:03:20;4.40;99.90
13606;DHT22;6874;52.084;5.090;2023-01-28T18:05:56;4.40;99.90
13606;DHT22;6874;52.084;5.090;2023-01-28T18:08:22;4.30;99.90
13606;DHT22;6874;52.084;5.090;2023-01-28T18:10:48;4.30;99.90
13606;DHT22;6874;52.084;5.090;2023-01-28T18:13:13;4.40;99.90
13606;DHT22;6874;52.084;5.090;2023-01-28T18:15:39;4.30;99.90
13606;DHT22;6874;52.084;5.090;2023-01-28T18:18:05;4.30;99.90
13606;DHT22;6874;52.084;5.090;2023-01-28T18:20:31;4.30;99.90
13606;DHT22;6874;52.084;5.090;2023-01-28T18:22:59;4.30;99.90
13606;DHT22;6874;52.084;5.090;2023-01-28T18:25:24;4.30;99.90
13606;DHT22;6874;52.084;5.090;2023-01-28T18:27:50;4.30;99.90
13606;DHT22;6874;52.084;5.090;2023-01-28T18:30:17;4.30;99.90
13606;DHT22;6874;52.084;5.090;2023-01-28T18:32:43;4.20;99.90
13606;DHT22;6874;52.084;5.090;2023-01-28T18:35:09;4.20;99.90
13606;DHT22;6874;52.084;5.090;2023-01-28T18:37:34;4.20;99.90